Time;durP1;ratioP1;P1;durP2;ratioP2;P2;SDS_P1;SDS_P2;PMS_P1;PMS_P2;Temp;Humidity;BMP_temperature;BMP_pressure;BME280_temperature;BME280_humidity;BME280_pressure;Samples;Min_cycle;Max_cycle;Signal;HPM_P1;HPM_P2
2021/12/18 00:00:33;;;;;;;;;;;;;;;2.05;90.34;102717.94;5039765;28;19921;-74
2021/12/18 00:02:58;;;;;;;;;;;;;;;2.00;90.95;102708.50;5043739;28;19956;-75
2021/12/18 00:05:23;;;;;;;;;;;;;;;2.00;91.48;102706.78;5052234;28;19924;-75
2021/12/18 00:07:48;;;;;;;;;;;;;;;2.00;94.87;102704.16;5045298;28;19917;-75
2021/12/18 00:10:14;;;;;;;;;;;;;;;2.02;91.44;102710.16;5047352;28;19921;-75
2021/12/18 00:12:47;;;;;;;;;;;;;;;1.98;90.73;102710.28;5041149;28;20488;-75
2021/12/18 00:15:12;;;;;;;;;;;;;;;1.95;93.72;102705.16;5051126;28;19920;-75
2021/12/18 00:17:37;;;;;;;;;;;;;;;1.93;94.23;102699.97;5051661;28;20062;-75
2021/12/18 00:20:03;;;;;;;;;;;;;;;1.83;93.43;102699.38;5049066;28;19924;-75
2021/12/18 00:22:28;;;;;;;;;;;;;;;1.81;91.25;102703.81;5047531;28;20282;-75
2021/12/18 00:24:53;;;;;;;;;;;;;;;1.72;92.59;102701.44;5051853;28;19921;-75
2021/12/18 00:27:18;;;;;;;;;;;;;;;1.73;92.52;102703.16;5052546;28;20353;-75
2021/12/18 00:29:43;;;;;;;;;;;;;;;1.73;91.35;102695.31;5049780;28;19920;-75
2021/12/18 00:32:09;;;;;;;;;;;;;;;1.73;93.51;102691.88;5043920;28;19921;-75
2021/12/18 00:34:34;;;;;;;;;;;;;;;1.74;93.56;102690.97;5044578;28;19925;-75
2021/12/18 00:36:59;;;;;;;;;;;;;;;1.78;92.57;102692.59;5051668;28;19925;-76
2021/12/18 00:39:24;;;;;;;;;;;;;;;1.75;92.97;102696.13;5054101;28;19916;-75
2021/12/18 00:42:20;;;;;;;;;;;;;;;1.71;93.43;102699.72;5052754;28;19928;-75
2021/12/18 00:44:45;;;;;;;;;;;;;;;1.70;93.37;102698.03;5050223;28;19928;-74
2021/12/18 00:47:10;;;;;;;;;;;;;;;1.75;95.22;102701.34;5051713;28;19927;-75
2021/12/18 00:49:36;;;;;;;;;;;;;;;1.83;93.66;102701.16;5052176;28;20023;-75
2021/12/18 00:52:02;;;;;;;;;;;;;;;1.85;94.76;102704.56;5051048;28;20384;-75
2021/12/18 00:54:27;;;;;;;;;;;;;;;1.91;95.27;102707.03;5051961;28;20552;-75
2021/12/18 00:56:52;;;;;;;;;;;;;;;1.99;95.97;102702.44;5050816;28;19929;-75
2021/12/18 00:59:18;;;;;;;;;;;;;;;2.03;95.24;102703.22;5045165;28;20358;-75
2021/12/18 01:01:45;;;;;;;;;;;;;;;2.07;95.48;102697.00;5044527;28;20331;-75
2021/12/18 01:04:10;;;;;;;;;;;;;;;2.12;95.45;102703.81;5050698;28;20011;-75
2021/12/18 01:06:36;;;;;;;;;;;;;;;2.19;95.90;102701.00;5051928;28;20342;-76
2021/12/18 01:09:01;;;;;;;;;;;;;;;2.22;95.07;102701.78;5050085;28;20429;-74
2021/12/18 01:11:46;;;;;;;;;;;;;;;2.25;94.58;102700.84;5038651;28;19922;-75
2021/12/18 01:14:45;;;;;;;;;;;;;;;2.31;94.51;102696.31;5043621;28;20203;-76
2021/12/18 01:24:51;;;;;;;;;;;;;;;2.64;94.90;102697.94;5050943;28;20003;-75
2021/12/18 01:27:17;;;;;;;;;;;;;;;2.69;95.07;102686.47;5050985;28;20012;-76
2021/12/18 01:29:42;;;;;;;;;;;;;;;2.72;94.29;102685.50;5051628;28;20038;-75
2021/12/18 01:32:09;;;;;;;;;;;;;;;2.76;94.49;102693.22;5040641;28;20006;-75
2021/12/18 01:34:34;;;;;;;;;;;;;;;2.84;95.16;102687.75;5049309;28;19943;-75
2021/12/18 01:36:59;;;;;;;;;;;;;;;2.88;94.66;102696.31;5050744;28;20402;-75
2021/12/18 01:39:24;;;;;;;;;;;;;;;2.93;94.42;102694.41;5038674;28;19971;-75
2021/12/18 01:42:17;;;;;;;;;;;;;;;2.97;94.67;102694.25;5044512;28;19917;-75
2021/12/18 01:52:41;;;;;;;;;;;;;;;3.12;93.13;102695.56;5048851;28;21692;-75
2021/12/18 01:55:08;;;;;;;;;;;;;;;3.19;92.62;102685.72;5051592;28;19917;-75
2021/12/18 01:57:33;;;;;;;;;;;;;;;3.24;93.01;102694.25;5047492;28;19928;-75
2021/12/18 01:59:58;;;;;;;;;;;;;;;3.27;93.41;102693.34;5050622;28;20012;-75
2021/12/18 02:02:24;;;;;;;;;;;;;;;3.31;93.08;102692.31;5049756;28;19929;-74
2021/12/18 02:04:50;;;;;;;;;;;;;;;3.37;93.00;102689.50;5050833;28;19974;-75
2021/12/18 02:07:15;;;;;;;;;;;;;;;3.39;93.54;102683.31;5047237;28;20400;-75
2021/12/18 02:12:13;;;;;;;;;;;;;;;3.49;93.09;102691.69;5043159;28;19916;-75
2021/12/18 02:22:56;;;;;;;;;;;;;;;3.51;93.57;102686.41;5032376;28;19923;-77
2021/12/18 02:25:23;;;;;;;;;;;;;;;3.49;93.54;102685.59;5036044;28;20023;-77
2021/12/18 02:27:49;;;;;;;;;;;;;;;3.57;93.20;102692.25;5042384;28;19923;-77
2021/12/18 02:30:15;;;;;;;;;;;;;;;3.59;93.13;102695.69;5051617;28;19917;-77
2021/12/18 02:32:40;;;;;;;;;;;;;;;3.64;93.10;102697.28;5039720;28;19924;-77
2021/12/18 02:35:06;;;;;;;;;;;;;;;3.72;92.10;102696.13;5049020;28;19925;-77
2021/12/18 02:37:38;;;;;;;;;;;;;;;3.82;91.31;102694.88;5038966;28;20031;-77
2021/12/18 02:42:33;;;;;;;;;;;;;;;3.81;91.80;102697.53;5046399;28;20279;-77
2021/12/18 02:44:59;;;;;;;;;;;;;;;3.77;92.45;102706.44;5046367;28;19921;-77
2021/12/18 02:47:24;;;;;;;;;;;;;;;3.80;91.97;102701.09;5046630;28;19936;-77
2021/12/18 02:49:50;;;;;;;;;;;;;;;3.82;91.73;102689.66;5028521;28;19921;-77
2021/12/18 02:52:17;;;;;;;;;;;;;;;3.83;91.56;102688.72;5031840;28;19935;-77
2021/12/18 02:54:42;;;;;;;;;;;;;;;3.86;91.56;102690.38;5049161;28;20412;-77
2021/12/18 02:57:08;;;;;;;;;;;;;;;3.90;91.75;102699.00;5040765;28;19921;-77
2021/12/18 02:59:49;;;;;;;;;;;;;;;3.87;91.96;102694.72;5048705;28;19974;-77
2021/12/18 03:02:16;;;;;;;;;;;;;;;3.90;91.85;102686.75;5047188;28;19956;-77
2021/12/18 03:04:44;;;;;;;;;;;;;;;3.92;91.87;102689.31;5048747;28;19921;-77
2021/12/18 03:07:11;;;;;;;;;;;;;;;3.92;91.86;102687.56;5045232;28;19978;-77
2021/12/18 03:21:19;;;;;;;;;;;;;;;3.80;93.43;102688.00;5044087;28;19928;-77
2021/12/18 03:26:01;;;;;;;;;;;;;;;3.97;92.72;102690.84;5048837;28;19978;-77
2021/12/18 03:28:27;;;;;;;;;;;;;;;4.03;91.90;102688.03;5048493;28;19928;-77
2021/12/18 03:30:52;;;;;;;;;;;;;;;4.10;91.79;102699.13;5045814;28;19921;-77
2021/12/18 03:33:17;;;;;;;;;;;;;;;4.13;91.87;102690.31;5052334;28;19921;-77
2021/12/18 03:35:43;;;;;;;;;;;;;;;4.16;91.56;102684.94;5032621;28;19983;-77
2021/12/18 03:38:10;;;;;;;;;;;;;;;4.20;91.02;102689.19;5038771;28;19920;-77
2021/12/18 03:40:35;;;;;;;;;;;;;;;4.19;91.46;102685.69;5052751;28;19921;-77
2021/12/18 03:43:00;;;;;;;;;;;;;;;4.20;91.29;102681.31;5048420;28;19944;-77
2021/12/18 03:45:25;;;;;;;;;;;;;;;4.21;91.24;102683.84;5040653;28;19947;-77
2021/12/18 03:47:51;;;;;;;;;;;;;;;4.17;91.60;102681.41;5052563;28;19921;-77
2021/12/18 03:50:17;;;;;;;;;;;;;;;4.18;91.21;102683.13;5051393;28;20294;-77
2021/12/18 03:52:43;;;;;;;;;;;;;;;4.21;91.41;102681.25;5051708;28;20411;-77
2021/12/18 03:55:08;;;;;;;;;;;;;;;4.20;91.07;102692.63;5052694;28;20385;-77
2021/12/18 03:57:34;;;;;;;;;;;;;;;4.20;91.01;102687.41;5051544;28;20018;-77
2021/12/18 03:59:59;;;;;;;;;;;;;;;4.09;92.21;102678.25;5051178;28;20047;-77
2021/12/18 04:02:24;;;;;;;;;;;;;;;4.06;91.65;102686.22;5050841;28;19948;-77
2021/12/18 04:04:49;;;;;;;;;;;;;;;3.91;92.63;102688.47;5052202;28;19921;-77
2021/12/18 04:07:15;;;;;;;;;;;;;;;3.91;92.50;102691.09;5051910;28;19927;-77
2021/12/18 04:09:40;;;;;;;;;;;;;;;3.81;92.63;102692.31;5052612;28;19924;-76
2021/12/18 04:12:06;;;;;;;;;;;;;;;3.75;93.13;102692.56;5052022;28;20289;-77
2021/12/18 04:14:31;;;;;;;;;;;;;;;3.71;93.10;102688.31;5042682;28;19921;-77
2021/12/18 04:16:56;;;;;;;;;;;;;;;3.69;93.47;102688.38;5051370;28;19925;-77
2021/12/18 04:19:21;;;;;;;;;;;;;;;3.72;93.61;102696.13;5051952;28;19925;-77
2021/12/18 04:21:47;;;;;;;;;;;;;;;3.74;93.59;102693.44;5042967;28;19929;-76
2021/12/18 04:24:12;;;;;;;;;;;;;;;3.69;94.19;102687.53;5041093;28;19975;-77
2021/12/18 04:26:37;;;;;;;;;;;;;;;3.71;93.47;102685.72;5038827;28;20282;-77
2021/12/18 04:29:03;;;;;;;;;;;;;;;3.74;93.14;102678.63;5045762;28;20319;-77
2021/12/18 04:31:29;;;;;;;;;;;;;;;3.70;93.33;102684.84;5052363;28;20447;-76
2021/12/18 04:33:54;;;;;;;;;;;;;;;3.70;93.95;102677.00;5041770;28;21166;-76
2021/12/18 04:36:19;;;;;;;;;;;;;;;3.80;92.79;102673.16;5052673;28;19979;-77
2021/12/18 04:38:45;;;;;;;;;;;;;;;3.81;92.73;102684.47;5044333;28;20282;-76
2021/12/18 04:41:11;;;;;;;;;;;;;;;3.83;92.56;102682.66;5054455;28;19921;-76
2021/12/18 04:43:36;;;;;;;;;;;;;;;3.79;92.47;102684.53;5051795;28;19959;-76
2021/12/18 04:46:02;;;;;;;;;;;;;;;3.74;92.71;102690.81;5052002;28;20400;-77
2021/12/18 04:48:27;;;;;;;;;;;;;;;3.76;92.44;102697.72;5051872;28;19920;-76
2021/12/18 04:50:53;;;;;;;;;;;;;;;3.81;91.85;102694.94;5051492;28;19921;-76
2021/12/18 04:53:18;;;;;;;;;;;;;;;3.74;93.29;102688.22;5051721;28;19924;-77
2021/12/18 04:55:44;;;;;;;;;;;;;;;3.77;92.96;102685.50;5051410;28;20045;-76
2021/12/18 04:58:09;;;;;;;;;;;;;;;3.78;93.25;102689.81;5051702;28;20339;-76
2021/12/18 05:00:39;;;;;;;;;;;;;;;3.83;92.92;102685.25;5052772;28;19928;-77
2021/12/18 05:03:07;;;;;;;;;;;;;;;3.86;93.36;102687.75;5050809;28;19928;-76
2021/12/18 05:05:33;;;;;;;;;;;;;;;3.88;92.56;102687.72;5052836;28;19920;-75
2021/12/18 05:07:58;;;;;;;;;;;;;;;3.92;92.79;102686.72;5052583;28;19920;-75
2021/12/18 05:10:23;;;;;;;;;;;;;;;3.93;92.64;102685.78;5052514;28;20289;-75
2021/12/18 05:12:48;;;;;;;;;;;;;;;3.93;92.19;102696.25;5049920;28;20011;-75
2021/12/18 05:15:14;;;;;;;;;;;;;;;3.96;91.80;102683.09;5052071;28;20361;-75
2021/12/18 05:17:39;;;;;;;;;;;;;;;3.93;92.30;102688.41;5050663;28;19929;-75
2021/12/18 05:20:04;;;;;;;;;;;;;;;3.88;92.88;102685.09;5042452;28;20003;-75
2021/12/18 05:22:30;;;;;;;;;;;;;;;3.80;94.17;102683.63;5050667;28;19973;-75
2021/12/18 05:24:55;;;;;;;;;;;;;;;3.87;93.66;102688.66;5040429;28;19921;-77
2021/12/18 05:27:20;;;;;;;;;;;;;;;3.89;93.25;102692.91;5050089;28;19921;-77
2021/12/18 05:29:45;;;;;;;;;;;;;;;3.87;93.39;102692.09;5051073;28;19960;-76
2021/12/18 05:32:10;;;;;;;;;;;;;;;3.92;93.04;102695.41;5050521;28;20377;-77
2021/12/18 05:34:37;;;;;;;;;;;;;;;3.96;92.62;102693.56;5048371;28;19999;-76
2021/12/18 05:37:16;;;;;;;;;;;;;;;4.00;92.67;102690.78;5044845;28;20282;-74
2021/12/18 05:39:41;;;;;;;;;;;;;;;3.99;92.94;102699.50;5051671;28;20281;-77
2021/12/18 05:42:07;;;;;;;;;;;;;;;4.04;92.95;102699.34;5049367;28;19928;-76
2021/12/18 05:44:32;;;;;;;;;;;;;;;4.08;92.59;102694.88;5051524;28;20409;-76
2021/12/18 05:46:57;;;;;;;;;;;;;;;4.09;92.32;102697.41;5035536;28;20357;-77
2021/12/18 05:49:22;;;;;;;;;;;;;;;4.12;92.20;102699.91;5047931;28;19921;-76
2021/12/18 05:51:48;;;;;;;;;;;;;;;4.13;92.39;102698.16;5050730;28;19921;-76
2021/12/18 05:54:13;;;;;;;;;;;;;;;4.16;92.63;102698.91;5049940;28;20293;-76
2021/12/18 05:56:39;;;;;;;;;;;;;;;4.20;92.21;102691.78;5050509;28;19990;-76
2021/12/18 05:59:04;;;;;;;;;;;;;;;4.14;92.55;102692.84;5050343;28;19921;-76
2021/12/18 06:01:29;;;;;;;;;;;;;;;4.15;92.68;102696.34;5036616;28;19931;-76
2021/12/18 06:03:55;;;;;;;;;;;;;;;4.18;92.13;102699.69;5049837;28;19966;-76
2021/12/18 06:06:21;;;;;;;;;;;;;;;4.19;92.16;102703.16;5049827;28;19924;-77
2021/12/18 06:08:47;;;;;;;;;;;;;;;4.19;92.19;102705.78;5049832;28;19967;-77
2021/12/18 06:11:15;;;;;;;;;;;;;;;4.23;92.03;102699.53;5050432;28;20014;-77
2021/12/18 06:13:41;;;;;;;;;;;;;;;4.26;92.46;102707.25;5050065;28;19916;-76
2021/12/18 06:16:06;;;;;;;;;;;;;;;4.31;91.67;102705.31;5049768;28;20384;-77
2021/12/18 06:18:35;;;;;;;;;;;;;;;4.34;91.71;102714.81;5050165;28;19921;-77
2021/12/18 06:21:01;;;;;;;;;;;;;;;4.38;91.76;102717.28;5050528;28;19916;-76
2021/12/18 06:23:26;;;;;;;;;;;;;;;4.44;91.33;102703.09;5050605;28;19928;-77
2021/12/18 06:25:51;;;;;;;;;;;;;;;4.42;91.49;102716.25;5049276;28;20313;-77
2021/12/18 06:28:17;;;;;;;;;;;;;;;4.42;91.16;102718.03;5048884;28;19955;-77
2021/12/18 06:30:42;;;;;;;;;;;;;;;4.40;91.52;102711.97;5046282;28;19928;-76
2021/12/18 06:33:07;;;;;;;;;;;;;;;4.40;91.84;102709.38;5049336;28;19921;-76
2021/12/18 06:35:33;;;;;;;;;;;;;;;4.45;91.28;102710.88;5049534;28;19927;-77
2021/12/18 06:37:58;;;;;;;;;;;;;;;4.44;91.35;102716.19;5049827;28;19916;-77
2021/12/18 06:40:23;;;;;;;;;;;;;;;4.43;91.12;102715.34;5049799;28;19925;-76
2021/12/18 06:42:48;;;;;;;;;;;;;;;4.48;91.00;102702.06;5049257;28;19920;-77
2021/12/18 06:45:14;;;;;;;;;;;;;;;4.53;91.01;102714.97;5049950;28;20015;-77
2021/12/18 06:47:40;;;;;;;;;;;;;;;4.50;91.26;102709.88;5049312;28;19944;-77
2021/12/18 06:50:05;;;;;;;;;;;;;;;4.48;91.23;102707.28;5039948;28;19921;-77
2021/12/18 06:52:31;;;;;;;;;;;;;;;4.47;90.96;102705.59;5049508;28;20325;-76
2021/12/18 06:54:56;;;;;;;;;;;;;;;4.47;91.36;102705.59;5050199;28;19917;-76
2021/12/18 06:57:22;;;;;;;;;;;;;;;4.51;91.04;102712.44;5049125;28;19924;-76
2021/12/18 06:59:48;;;;;;;;;;;;;;;4.44;91.20;102714.44;5049737;28;19921;-75
2021/12/18 07:02:13;;;;;;;;;;;;;;;4.48;90.75;102725.63;5048472;28;19925;-76
2021/12/18 07:04:38;;;;;;;;;;;;;;;4.49;91.02;102721.28;5037142;28;19928;-76
2021/12/18 07:07:03;;;;;;;;;;;;;;;4.52;91.13;102719.38;5045488;28;19921;-76
2021/12/18 07:09:29;;;;;;;;;;;;;;;4.61;90.51;102726.88;5049711;28;19924;-75
2021/12/18 07:11:54;;;;;;;;;;;;;;;4.55;90.49;102723.63;5045983;28;19924;-76
2021/12/18 07:14:19;;;;;;;;;;;;;;;4.50;89.92;102715.94;5040563;28;19928;-75
2021/12/18 07:16:44;;;;;;;;;;;;;;;4.59;90.18;102720.00;5036680;28;19928;-76
2021/12/18 07:19:09;;;;;;;;;;;;;;;4.54;89.65;102717.56;5043633;28;20270;-76
2021/12/18 07:21:35;;;;;;;;;;;;;;;4.61;89.66;102715.56;5031940;28;19928;-76
2021/12/18 07:24:00;;;;;;;;;;;;;;;4.55;89.83;102721.88;5048382;28;20404;-76
2021/12/18 07:26:25;;;;;;;;;;;;;;;4.54;89.89;102725.41;5048606;28;19931;-76
2021/12/18 07:28:50;;;;;;;;;;;;;;;4.57;89.48;102729.69;5049913;28;19921;-76
2021/12/18 07:31:16;;;;;;;;;;;;;;;4.59;89.35;102733.94;5046748;28;20108;-76
2021/12/18 07:33:43;;;;;;;;;;;;;;;4.50;89.74;102731.66;5048628;28;19925;-76
2021/12/18 07:36:08;;;;;;;;;;;;;;;4.54;89.52;102732.44;5048869;28;19925;-76
2021/12/18 07:38:34;;;;;;;;;;;;;;;4.52;89.13;102729.00;5048814;28;20429;-76
2021/12/18 07:40:59;;;;;;;;;;;;;;;4.63;88.88;102727.69;5049245;28;19927;-76
2021/12/18 07:43:24;;;;;;;;;;;;;;;4.55;89.02;102723.63;5030019;28;19927;-75
2021/12/18 07:45:49;;;;;;;;;;;;;;;4.47;89.79;102716.94;5044227;28;19921;-76
2021/12/18 07:48:15;;;;;;;;;;;;;;;4.51;89.83;102720.31;5036180;28;20265;-76
2021/12/18 07:50:40;;;;;;;;;;;;;;;4.54;89.81;102720.16;5046830;28;19927;-76
2021/12/18 07:53:05;;;;;;;;;;;;;;;4.54;89.84;102717.56;5048625;28;19928;-76
2021/12/18 07:55:30;;;;;;;;;;;;;;;4.60;89.47;102716.44;5048444;28;19920;-76
2021/12/18 07:57:56;;;;;;;;;;;;;;;4.62;89.88;102714.63;5049372;28;19929;-76
2021/12/18 08:00:21;;;;;;;;;;;;;;;4.67;89.76;102721.41;5048353;28;19921;-76
2021/12/18 08:02:47;;;;;;;;;;;;;;;4.72;89.51;102722.97;5045060;28;20393;-76
2021/12/18 08:05:14;;;;;;;;;;;;;;;4.72;89.01;102726.50;5029687;28;20358;-76
2021/12/18 08:07:39;;;;;;;;;;;;;;;4.72;89.38;102718.63;5038411;28;19931;-76
2021/12/18 08:10:05;;;;;;;;;;;;;;;4.73;89.06;102719.47;5049576;28;19921;-76
2021/12/18 08:12:30;;;;;;;;;;;;;;;4.75;89.17;102728.13;5047565;28;19935;-76
2021/12/18 08:14:56;;;;;;;;;;;;;;;4.78;89.44;102726.22;5044524;28;19990;-76
2021/12/18 08:17:22;;;;;;;;;;;;;;;4.80;88.55;102732.28;5048854;28;20384;-76
2021/12/18 08:19:47;;;;;;;;;;;;;;;4.81;88.83;102735.75;5052646;28;20111;-76
2021/12/18 08:22:12;;;;;;;;;;;;;;;4.80;87.39;102731.41;5052022;28;20019;-76
2021/12/18 08:24:37;;;;;;;;;;;;;;;4.73;86.58;102730.81;5045818;28;20404;-76
2021/12/18 08:27:02;;;;;;;;;;;;;;;4.77;86.80;102729.78;5052148;28;19975;-76
2021/12/18 08:29:28;;;;;;;;;;;;;;;4.75;87.21;102728.13;5052989;28;20015;-76
2021/12/18 08:31:53;;;;;;;;;;;;;;;4.70;86.32;102730.94;5051669;28;20372;-77
2021/12/18 08:34:19;;;;;;;;;;;;;;;4.72;87.05;102731.72;5052435;28;19916;-77
2021/12/18 08:36:44;;;;;;;;;;;;;;;4.82;86.30;102743.56;5042826;28;19925;-76
2021/12/18 08:39:10;;;;;;;;;;;;;;;4.78;86.72;102735.88;5043711;28;19921;-77
2021/12/18 08:41:36;;;;;;;;;;;;;;;4.81;86.41;102738.34;5053462;28;20359;-76
2021/12/18 08:44:01;;;;;;;;;;;;;;;4.79;86.29;102738.44;5053352;28;19966;-77
2021/12/18 08:46:26;;;;;;;;;;;;;;;4.76;86.27;102738.53;5052013;28;19971;-77
2021/12/18 08:48:51;;;;;;;;;;;;;;;4.83;86.89;102739.16;5041575;28;19921;-76
2021/12/18 08:51:16;;;;;;;;;;;;;;;4.83;85.77;102739.16;5045786;28;19940;-76
2021/12/18 08:53:42;;;;;;;;;;;;;;;4.85;86.18;102739.94;5052048;28;20341;-76
2021/12/18 08:56:07;;;;;;;;;;;;;;;4.79;85.72;102743.69;5052024;28;20066;-76
2021/12/18 08:58:32;;;;;;;;;;;;;;;4.85;85.95;102748.66;5050187;28;20400;-76
2021/12/18 09:00:58;;;;;;;;;;;;;;;4.93;86.53;102740.50;5038713;28;19928;-76
2021/12/18 09:03:23;;;;;;;;;;;;;;;4.86;84.74;102734.66;5051932;28;20348;-76
2021/12/18 09:05:48;;;;;;;;;;;;;;;4.97;84.98;102741.25;5051494;28;19917;-76
2021/12/18 09:08:14;;;;;;;;;;;;;;;4.97;85.13;102739.47;5048293;28;20297;-76
2021/12/18 09:10:39;;;;;;;;;;;;;;;4.90;85.35;102736.22;5052019;28;19917;-76
2021/12/18 09:13:04;;;;;;;;;;;;;;;5.00;85.14;102736.72;5051791;28;19924;-77
2021/12/18 09:15:30;;;;;;;;;;;;;;;4.91;83.52;102731.88;5048829;28;19927;-76
2021/12/18 09:17:55;;;;;;;;;;;;;;;4.98;85.20;102737.69;5051561;28;19933;-76
2021/12/18 09:20:20;;;;;;;;;;;;;;;5.07;85.28;102732.09;5048376;28;19917;-76
2021/12/18 09:22:45;;;;;;;;;;;;;;;5.14;85.03;102732.69;5045117;28;19921;-76
2021/12/18 09:25:11;;;;;;;;;;;;;;;5.12;84.41;102730.13;5050686;28;19927;-76
2021/12/18 09:27:37;;;;;;;;;;;;;;;5.16;84.14;102729.09;5031289;28;19975;-77
2021/12/18 09:30:07;;;;;;;;;;;;;;;5.17;83.95;102737.81;5050117;28;19924;-76
2021/12/18 09:32:32;;;;;;;;;;;;;;;5.10;83.93;102731.94;5049627;28;19924;-76
2021/12/18 09:34:57;;;;;;;;;;;;;;;5.07;83.83;102727.69;5051400;28;19997;-76
2021/12/18 09:37:22;;;;;;;;;;;;;;;5.07;83.45;102724.22;5051122;28;20345;-76
2021/12/18 09:39:48;;;;;;;;;;;;;;;4.98;84.27;102725.47;5025959;28;19921;-77
2021/12/18 09:42:13;;;;;;;;;;;;;;;5.13;83.63;102728.38;5049007;28;19921;-74
2021/12/18 09:44:38;;;;;;;;;;;;;;;5.01;82.96;102734.97;5037954;28;19944;-77
2021/12/18 09:47:04;;;;;;;;;;;;;;;5.03;82.96;102723.50;5047892;28;19949;-76
2021/12/18 09:49:29;;;;;;;;;;;;;;;4.96;83.18;102721.16;5033964;28;19924;-76
2021/12/18 09:51:54;;;;;;;;;;;;;;;4.97;83.26;102720.25;5033712;28;19936;-76
2021/12/18 09:54:21;;;;;;;;;;;;;;;5.06;82.91;102723.38;5033991;28;19975;-76
2021/12/18 09:56:46;;;;;;;;;;;;;;;4.80;83.40;102713.91;5052106;28;19925;-76
2021/12/18 09:59:12;;;;;;;;;;;;;;;4.95;83.91;102703.75;5042574;28;19925;-76
2021/12/18 10:01:37;;;;;;;;;;;;;;;4.91;83.65;102713.50;5034670;28;19921;-77
2021/12/18 10:04:03;;;;;;;;;;;;;;;5.07;83.35;102718.97;5044433;28;19921;-77
2021/12/18 10:06:36;;;;;;;;;;;;;;;4.98;83.10;102711.47;5050478;28;19931;-76
2021/12/18 10:09:03;;;;;;;;;;;;;;;4.83;83.72;102703.31;5048710;28;20007;-76
2021/12/18 10:11:28;;;;;;;;;;;;;;;4.86;84.07;102707.56;5043149;28;19927;-76
2021/12/18 10:13:55;;;;;;;;;;;;;;;4.95;83.99;102704.59;5045949;28;20305;-76
2021/12/18 10:16:21;;;;;;;;;;;;;;;5.01;83.84;102706.13;5049994;28;19933;-76
2021/12/18 10:18:46;;;;;;;;;;;;;;;5.07;84.09;102698.00;5049655;28;19939;-76
2021/12/18 10:21:19;;;;;;;;;;;;;;;5.16;83.11;102696.78;5031314;28;19925;-77
2021/12/18 10:23:45;;;;;;;;;;;;;;;5.06;82.55;102691.91;5035722;28;19928;-76
2021/12/18 10:26:29;;;;;;;;;;;;;;;5.06;83.81;102694.53;5036761;28;19921;-75
2021/12/18 10:28:54;;;;;;;;;;;;;;;5.04;84.02;102696.34;5047013;28;19928;-76
2021/12/18 10:31:36;;;;;;;;;;;;;;;5.04;84.59;102695.50;5045819;28;20007;-76
2021/12/18 10:34:20;;;;;;;;;;;;;;;5.23;82.89;102696.44;5045259;28;19983;-76
2021/12/18 10:37:05;;;;;;;;;;;;;;;5.14;83.05;102690.72;5045408;28;19925;-76
2021/12/18 10:39:30;;;;;;;;;;;;;;;5.19;82.81;102684.38;5049962;28;19928;-76
2021/12/18 10:41:55;;;;;;;;;;;;;;;5.26;82.22;102679.72;5030798;28;19920;-76
2021/12/18 10:44:20;;;;;;;;;;;;;;;5.18;82.28;102677.44;5025443;28;19952;-76
2021/12/18 10:46:46;;;;;;;;;;;;;;;5.03;82.34;102673.69;5047696;28;20400;-76
2021/12/18 10:49:14;;;;;;;;;;;;;;;5.07;82.69;102670.00;5031010;28;20140;-76
2021/12/18 10:51:40;;;;;;;;;;;;;;;5.14;82.51;102661.88;5027988;28;19929;-76
2021/12/18 10:54:07;;;;;;;;;;;;;;;5.21;82.29;102661.56;5024782;28;20293;-76
2021/12/18 10:56:37;;;;;;;;;;;;;;;5.18;82.82;102660.84;5014325;28;20730;-76
2021/12/18 10:59:02;;;;;;;;;;;;;;;5.17;82.99;102659.97;5029695;28;19998;-76
2021/12/18 11:01:29;;;;;;;;;;;;;;;5.30;83.30;102655.94;5029943;28;19921;-76
2021/12/18 11:03:55;;;;;;;;;;;;;;;5.41;82.66;102655.50;5026036;28;19925;-76
2021/12/18 11:06:21;;;;;;;;;;;;;;;5.44;82.25;102651.88;5023025;28;19926;-76
2021/12/18 11:08:55;;;;;;;;;;;;;;;5.49;82.80;102656.00;5028732;28;19927;-76
2021/12/18 11:14:02;;;;;;;;;;;;;;;5.46;82.21;102650.88;5011116;28;20016;-76
2021/12/18 11:16:28;;;;;;;;;;;;;;;5.39;81.25;102644.19;5027869;28;19925;-76
2021/12/18 11:18:56;;;;;;;;;;;;;;;5.31;82.48;102646.28;5028144;28;19972;-76
2021/12/18 11:21:25;;;;;;;;;;;;;;;5.28;83.24;102646.41;5030238;28;19929;-76
2021/12/18 11:23:54;;;;;;;;;;;;;;;5.36;82.73;102644.31;5028810;28;19921;-76
2021/12/18 11:26:21;;;;;;;;;;;;;;;5.40;83.08;102631.94;5028141;28;19917;-77
2021/12/18 11:28:48;;;;;;;;;;;;;;;5.45;83.09;102643.06;5027683;28;20497;-76
2021/12/18 11:31:14;;;;;;;;;;;;;;;5.37;82.23;102632.91;5029097;28;19927;-76
2021/12/18 11:33:39;;;;;;;;;;;;;;;5.49;82.48;102634.16;5028475;28;19920;-76
2021/12/18 11:36:05;;;;;;;;;;;;;;;5.34;82.54;102627.81;5042559;28;19937;-76
2021/12/18 11:38:33;;;;;;;;;;;;;;;5.25;82.57;102636.91;5028363;28;19928;-76
2021/12/18 11:40:59;;;;;;;;;;;;;;;5.15;82.47;102633.00;5028518;28;20134;-77
2021/12/18 11:43:33;;;;;;;;;;;;;;;5.05;83.13;102629.91;5020471;28;20382;-76
2021/12/18 11:45:59;;;;;;;;;;;;;;;5.12;83.07;102625.22;5030294;28;20239;-77
2021/12/18 11:48:24;;;;;;;;;;;;;;;5.06;83.36;102625.50;5037937;28;19932;-76
2021/12/18 11:50:50;;;;;;;;;;;;;;;5.16;83.38;102616.31;5044635;28;19939;-77
2021/12/18 11:53:19;;;;;;;;;;;;;;;5.20;83.21;102623.16;5049309;28;20298;-76
2021/12/18 11:55:50;;;;;;;;;;;;;;;5.20;83.31;102622.31;5051481;28;20374;-76
2021/12/18 11:58:23;;;;;;;;;;;;;;;5.24;82.91;102618.59;5051526;28;19921;-76
2021/12/18 12:00:55;;;;;;;;;;;;;;;5.18;83.18;102614.50;5051826;28;19924;-77
2021/12/18 12:03:26;;;;;;;;;;;;;;;5.11;83.40;102613.03;5051485;28;20091;-76
2021/12/18 12:05:52;;;;;;;;;;;;;;;5.21;83.57;102606.47;5051681;28;19925;-76
2021/12/18 12:08:19;;;;;;;;;;;;;;;5.26;83.07;102604.50;5040413;28;19970;-76
2021/12/18 12:11:03;;;;;;;;;;;;;;;5.21;82.64;102597.75;5047803;28;20275;-76
2021/12/18 12:13:47;;;;;;;;;;;;;;;5.19;83.00;102595.19;5050976;28;20309;-76
2021/12/18 12:16:12;;;;;;;;;;;;;;;5.16;83.78;102590.09;5051190;28;20119;-76
2021/12/18 12:18:56;;;;;;;;;;;;;;;5.23;83.36;102588.06;5050578;28;20076;-75
2021/12/18 12:21:43;;;;;;;;;;;;;;;5.24;82.58;102584.50;5047844;28;20297;-76
2021/12/18 12:24:08;;;;;;;;;;;;;;;5.11;82.95;102590.28;5041826;28;20198;-76
2021/12/18 12:26:35;;;;;;;;;;;;;;;5.07;83.39;102588.72;5050510;28;19948;-76
2021/12/18 12:29:00;;;;;;;;;;;;;;;5.05;83.95;102584.44;5043118;28;19921;-76
2021/12/18 12:31:27;;;;;;;;;;;;;;;5.17;83.45;102583.91;5051792;28;19928;-76
2021/12/18 12:34:12;;;;;;;;;;;;;;;5.14;83.89;102583.22;5050493;28;20362;-76
2021/12/18 12:36:42;;;;;;;;;;;;;;;5.20;83.48;102582.97;5058002;28;19967;-77
2021/12/18 12:39:07;;;;;;;;;;;;;;;5.25;83.43;102573.97;5036830;28;19982;-76
2021/12/18 12:41:41;;;;;;;;;;;;;;;5.19;83.34;102578.63;5052967;28;19920;-76
2021/12/18 12:44:31;;;;;;;;;;;;;;;5.28;83.14;102581.69;5047403;28;19921;-76
2021/12/18 12:47:17;;;;;;;;;;;;;;;5.27;83.50;102572.13;5053926;28;19921;-76
2021/12/18 12:49:43;;;;;;;;;;;;;;;5.27;83.08;102569.50;5042994;28;19925;-76
2021/12/18 12:52:10;;;;;;;;;;;;;;;5.19;82.87;102565.50;5032201;28;20336;-76
2021/12/18 12:54:41;;;;;;;;;;;;;;;5.28;83.43;102565.94;5043448;28;19952;-76
2021/12/18 12:57:26;;;;;;;;;;;;;;;5.30;83.16;102565.91;5027349;28;19947;-76
2021/12/18 12:59:52;;;;;;;;;;;;;;;5.28;82.91;102571.19;5050372;28;20370;-76
2021/12/18 13:02:18;;;;;;;;;;;;;;;5.21;83.28;102566.28;5048090;28;19920;-76
2021/12/18 13:04:44;;;;;;;;;;;;;;;5.24;83.62;102566.16;5044879;28;19928;-76
2021/12/18 13:07:09;;;;;;;;;;;;;;;5.28;83.16;102557.22;5045471;28;20072;-76
2021/12/18 13:09:35;;;;;;;;;;;;;;;5.25;83.09;102562.63;5045937;28;19932;-77
2021/12/18 13:12:01;;;;;;;;;;;;;;;5.24;83.19;102561.78;5040041;28;19924;-75
2021/12/18 13:14:34;;;;;;;;;;;;;;;5.26;82.79;102557.28;5049871;28;19927;-76
2021/12/18 13:17:00;;;;;;;;;;;;;;;5.19;83.05;102549.75;5041607;28;19957;-75
2021/12/18 13:19:25;;;;;;;;;;;;;;;5.19;83.34;102545.38;5049135;28;19952;-76
2021/12/18 13:21:50;;;;;;;;;;;;;;;5.10;83.65;102556.25;5046995;28;19921;-76
2021/12/18 13:24:15;;;;;;;;;;;;;;;5.11;83.85;102555.34;5041144;28;20305;-77
2021/12/18 13:26:44;;;;;;;;;;;;;;;5.12;83.71;102541.31;5050494;28;20003;-77
2021/12/18 13:29:20;;;;;;;;;;;;;;;5.12;83.78;102536.06;5045994;28;19927;-79
2021/12/18 13:31:49;;;;;;;;;;;;;;;5.05;83.75;102539.88;5043804;28;19924;-80